createdAt,value
2022-10-19T00:00:47.808Z,5.78
2022-10-19T00:03:18.245Z,6.07
2022-10-19T00:05:47.416Z,5.68
2022-10-19T00:08:13.995Z,6.55
2022-10-19T00:10:41.345Z,6.07
2022-10-19T00:13:08.462Z,6.10
2022-10-19T00:15:39.421Z,5.72
2022-10-19T00:18:06.766Z,5.10
2022-10-19T00:20:34.165Z,5.65
2022-10-19T00:23:00.746Z,5.70
2022-10-19T00:25:27.427Z,6.18
2022-10-19T00:27:54.016Z,6.05
2022-10-19T00:30:20.839Z,6.22
2022-10-19T00:32:47.414Z,6.90
2022-10-19T00:35:14.011Z,6.85
2022-10-19T00:37:40.631Z,6.97
2022-10-19T00:40:08.041Z,6.30
2022-10-19T00:42:34.755Z,5.72
2022-10-19T00:45:06.573Z,5.22
2022-10-19T00:47:34.152Z,5.95
2022-10-19T00:50:01.139Z,5.15
2022-10-19T00:52:28.011Z,7.32
2022-10-19T00:54:56.996Z,7.03
2022-10-19T00:57:26.526Z,6.50
2022-10-19T00:59:53.187Z,6.18
2022-10-19T01:02:19.835Z,6.50
2022-10-19T01:04:51.861Z,6.28
2022-10-19T01:07:19.796Z,6.80
2022-10-19T01:09:46.734Z,5.88
2022-10-19T01:12:36.974Z,6.43
2022-10-19T01:15:33.710Z,6.00
2022-10-19T01:18:34.982Z,5.80
2022-10-19T01:21:26.162Z,5.35
2022-10-19T01:24:11.928Z,5.85
2022-10-19T01:26:56.467Z,5.85
2022-10-19T01:29:38.678Z,6.88
2022-10-19T01:32:24.152Z,5.32
2022-10-19T01:35:06.611Z,4.93
2022-10-19T01:37:44.082Z,5.07
2022-10-19T01:40:43.186Z,5.80
2022-10-19T01:43:19.063Z,7.80
2022-10-19T01:45:53.995Z,7.57
2022-10-19T01:48:29.274Z,7.20
2022-10-19T01:51:07.764Z,7.53
2022-10-19T01:53:41.710Z,7.05
2022-10-19T01:56:09.686Z,7.03
2022-10-19T01:58:39.608Z,6.50
2022-10-19T02:03:42.375Z,6.85
2022-10-19T02:06:11.590Z,6.40
2022-10-19T02:08:43.971Z,7.50
2022-10-19T02:11:10.829Z,7.30
2022-10-19T02:13:39.846Z,7.57
2022-10-19T02:16:10.982Z,8.00
2022-10-19T02:18:43.403Z,7.38
2022-10-19T02:21:10.706Z,7.78
2022-10-19T02:23:37.532Z,7.88
2022-10-19T02:26:04.792Z,7.45
2022-10-19T02:28:31.670Z,8.05
2022-10-19T02:30:59.184Z,8.35
2022-10-19T02:33:26.988Z,7.15
2022-10-19T02:35:53.633Z,7.10
2022-10-19T02:38:22.590Z,7.18
2022-10-19T02:41:02.283Z,7.13
2022-10-19T02:43:32.059Z,7.63
2022-10-19T02:46:08.719Z,7.68
2022-10-19T02:48:38.103Z,8.02
2022-10-19T02:51:04.746Z,6.97
2022-10-19T02:53:31.390Z,7.65
2022-10-19T02:55:58.079Z,6.13
2022-10-19T02:58:24.713Z,7.70
2022-10-19T03:00:51.358Z,5.50
2022-10-19T03:03:17.971Z,5.40
2022-10-19T03:05:44.600Z,6.47
2022-10-19T03:08:11.211Z,6.00
2022-10-19T03:10:37.797Z,6.15
2022-10-19T03:13:04.382Z,6.53
2022-10-19T03:15:30.977Z,7.97
2022-10-19T03:17:57.625Z,7.55
2022-10-19T03:20:24.279Z,8.20
2022-10-19T03:22:50.994Z,9.57
2022-10-19T03:25:17.681Z,11.15
2022-10-19T03:27:44.275Z,10.02
2022-10-19T03:30:11.219Z,10.93
2022-10-19T03:32:37.850Z,12.23
2022-10-19T03:35:04.897Z,13.98
2022-10-19T03:37:31.757Z,13.55
2022-10-19T03:39:58.619Z,13.95
2022-10-19T03:42:25.236Z,13.20
2022-10-19T03:44:51.810Z,13.88
2022-10-19T03:47:18.405Z,13.85
2022-10-19T03:49:45.091Z,13.70
2022-10-19T03:52:11.690Z,13.60
2022-10-19T03:54:38.415Z,13.60
2022-10-19T03:57:05.057Z,13.55
2022-10-19T03:59:31.838Z,11.85
2022-10-19T04:01:58.393Z,11.18
2022-10-19T04:04:25.110Z,12.77
2022-10-19T04:06:53.513Z,12.55
2022-10-19T04:09:22.073Z,12.63
2022-10-19T04:11:49.349Z,12.15
2022-10-19T04:14:26.860Z,12.32
2022-10-19T04:17:01.643Z,11.00
2022-10-19T04:19:28.352Z,10.98
2022-10-19T04:21:55.038Z,12.45
2022-10-19T04:24:21.755Z,11.52
2022-10-19T04:26:51.496Z,12.25
2022-10-19T04:29:20.163Z,11.57
2022-10-19T04:31:49.374Z,12.48
2022-10-19T04:34:16.423Z,11.15
2022-10-19T04:36:43.031Z,11.07
2022-10-19T04:39:09.911Z,10.15
2022-10-19T04:41:38.297Z,11.60
2022-10-19T04:44:08.625Z,11.63
2022-10-19T04:46:35.396Z,12.23
2022-10-19T04:49:04.287Z,11.27
2022-10-19T04:51:30.976Z,11.95
2022-10-19T04:53:59.665Z,10.38
2022-10-19T04:56:28.277Z,9.10
2022-10-19T04:58:57.521Z,9.52
2022-10-19T05:01:25.607Z,12.77
2022-10-19T05:04:00.557Z,11.45
2022-10-19T05:06:27.810Z,12.73
2022-10-19T05:08:54.505Z,11.63
2022-10-19T05:11:21.344Z,12.82
2022-10-19T05:13:48.888Z,12.57
2022-10-19T05:16:21.314Z,14.35
2022-10-19T05:18:59.676Z,12.00
2022-10-19T05:21:28.844Z,12.70
2022-10-19T05:23:56.706Z,13.70
2022-10-19T05:26:25.926Z,12.13
2022-10-19T05:28:59.450Z,12.68
2022-10-19T05:31:28.543Z,15.10
2022-10-19T05:33:58.641Z,14.35
2022-10-19T05:36:27.907Z,11.43
2022-10-19T05:38:57.049Z,10.45
2022-10-19T05:41:25.598Z,10.40
2022-10-19T05:43:57.304Z,11.13
2022-10-19T05:46:25.544Z,10.85
2022-10-19T05:48:52.622Z,11.30
2022-10-19T05:51:21.701Z,13.15
2022-10-19T05:53:48.730Z,11.77
2022-10-19T05:56:18.074Z,11.52
2022-10-19T05:58:45.142Z,12.40
2022-10-19T06:01:12.524Z,12.43
2022-10-19T06:03:39.148Z,12.45
2022-10-19T06:06:07.576Z,11.20
2022-10-19T06:08:34.697Z,10.68
2022-10-19T06:11:10.707Z,11.30
2022-10-19T06:13:38.423Z,11.40
2022-10-19T06:16:06.228Z,9.57
2022-10-19T06:18:33.315Z,7.85
2022-10-19T06:21:05.709Z,9.15
2022-10-19T06:23:34.190Z,10.70
2022-10-19T06:26:05.947Z,7.78
2022-10-19T06:28:32.751Z,10.00
2022-10-19T06:31:00.238Z,8.02
2022-10-19T06:33:28.098Z,8.13
2022-10-19T06:35:54.662Z,9.48
2022-10-19T06:38:21.543Z,7.43
2022-10-19T06:40:49.219Z,9.70
2022-10-19T06:43:15.879Z,9.57
2022-10-19T06:45:42.451Z,7.55
2022-10-19T06:48:09.104Z,12.05
2022-10-19T06:50:35.684Z,8.38
2022-10-19T06:53:02.335Z,8.13
2022-10-19T06:55:28.903Z,10.85
2022-10-19T06:57:55.483Z,11.90
2022-10-19T07:00:22.076Z,12.73
2022-10-19T07:02:48.646Z,13.95
2022-10-19T07:05:15.326Z,15.52
2022-10-19T07:07:41.958Z,16.05
2022-10-19T07:10:08.970Z,16.88
2022-10-19T07:12:35.559Z,15.65
2022-10-19T07:15:02.142Z,16.10
2022-10-19T07:17:28.783Z,21.27
2022-10-19T07:19:55.483Z,13.27
2022-10-19T07:22:27.211Z,13.82
2022-10-19T07:24:54.739Z,14.80
2022-10-19T07:27:21.687Z,14.65
2022-10-19T07:29:48.283Z,14.15
2022-10-19T07:32:14.873Z,13.43
2022-10-19T07:34:41.521Z,13.68
2022-10-19T07:37:08.149Z,12.30
2022-10-19T07:39:34.724Z,12.18
2022-10-19T07:42:01.358Z,12.73
2022-10-19T07:44:28.107Z,12.38
2022-10-19T07:46:54.739Z,12.05
2022-10-19T07:49:21.850Z,11.35
2022-10-19T07:51:48.439Z,10.75
2022-10-19T07:54:15.427Z,10.77
2022-10-19T07:56:42.012Z,10.50
2022-10-19T07:59:10.299Z,10.27
2022-10-19T08:01:41.432Z,9.77
2022-10-19T08:06:55.179Z,9.75
2022-10-19T08:12:12.456Z,10.32
2022-10-19T08:14:40.603Z,10.35
2022-10-19T08:17:07.195Z,10.98
2022-10-19T08:19:33.783Z,11.82
2022-10-19T08:22:00.381Z,9.57
2022-10-19T08:24:26.978Z,9.27
2022-10-19T08:26:53.558Z,9.27
2022-10-19T08:29:21.124Z,12.35
2022-10-19T08:31:48.984Z,6.72
2022-10-19T08:34:16.553Z,7.53
2022-10-19T08:36:43.352Z,6.18
2022-10-19T08:39:12.681Z,7.40
2022-10-19T08:41:42.358Z,7.22
2022-10-19T08:44:18.223Z,7.93
2022-10-19T08:47:02.401Z,7.30
2022-10-19T08:49:31.831Z,7.70
2022-10-19T08:52:05.076Z,11.15
2022-10-19T08:54:51.147Z,11.02
2022-10-19T08:57:36.882Z,11.07
2022-10-19T09:00:10.315Z,13.55
2022-10-19T09:02:56.593Z,12.90
2022-10-19T09:05:52.792Z,12.60
2022-10-19T09:08:20.606Z,10.82
2022-10-19T09:10:50.994Z,9.18
2022-10-19T09:14:03.836Z,9.00
2022-10-19T09:16:30.355Z,9.15
2022-10-19T09:18:56.985Z,9.35
2022-10-19T09:21:55.157Z,8.02
2022-10-19T09:24:45.702Z,8.23
2022-10-19T09:27:37.501Z,8.70
2022-10-19T09:30:19.116Z,7.10
2022-10-19T09:32:47.477Z,7.60
2022-10-19T09:35:23.271Z,8.73
2022-10-19T09:37:51.238Z,7.90
2022-10-19T09:40:22.539Z,8.25
2022-10-19T09:42:56.947Z,9.02
2022-10-19T09:45:54.071Z,9.82
2022-10-19T09:48:45.820Z,8.57
2022-10-19T09:51:15.027Z,9.27
2022-10-19T09:53:45.965Z,7.25
2022-10-19T09:56:19.862Z,8.10
2022-10-19T09:58:55.339Z,7.57
2022-10-19T10:01:41.952Z,6.68
2022-10-19T10:04:18.604Z,9.35
2022-10-19T10:06:48.101Z,6.70
2022-10-19T10:09:22.318Z,7.60
2022-10-19T10:11:50.922Z,6.50
2022-10-19T10:14:26.923Z,9.27
2022-10-19T10:17:06.353Z,9.95
2022-10-19T10:19:35.645Z,9.50
2022-10-19T10:22:04.190Z,8.70
2022-10-19T10:24:32.917Z,7.20
2022-10-19T10:27:02.339Z,9.43
2022-10-19T10:29:33.679Z,7.45
2022-10-19T10:32:06.192Z,8.55
2022-10-19T10:34:45.956Z,5.70
2022-10-19T10:37:38.915Z,7.38
2022-10-19T10:40:07.859Z,7.30
2022-10-19T10:42:44.311Z,6.20
2022-10-19T10:45:24.937Z,6.80
2022-10-19T10:47:52.969Z,8.25
2022-10-19T10:50:23.900Z,8.40
2022-10-19T10:53:26.879Z,8.00
2022-10-19T10:55:56.247Z,6.27
2022-10-19T10:58:38.943Z,7.20
2022-10-19T11:01:13.328Z,7.75
2022-10-19T11:03:51.388Z,8.93
2022-10-19T11:06:21.133Z,10.07
2022-10-19T11:09:23.101Z,9.32
2022-10-19T11:11:55.979Z,8.98
2022-10-19T11:14:42.785Z,8.50
2022-10-19T11:17:28.486Z,8.93
2022-10-19T11:19:55.179Z,9.15
2022-10-19T11:22:43.625Z,9.25
2022-10-19T11:25:22.210Z,9.38
2022-10-19T11:28:00.715Z,9.57
2022-10-19T11:30:29.401Z,9.32
2022-10-19T11:33:13.084Z,9.63
2022-10-19T11:35:50.376Z,9.30
2022-10-19T11:38:30.892Z,8.23
2022-10-19T11:41:18.275Z,9.60
2022-10-19T11:44:06.544Z,8.50
2022-10-19T11:46:45.740Z,8.25
2022-10-19T11:49:18.192Z,9.60
2022-10-19T11:52:05.706Z,8.77
2022-10-19T11:54:53.239Z,9.27
2022-10-19T11:57:26.249Z,8.40
2022-10-19T12:03:06.006Z,8.93
2022-10-19T12:05:52.275Z,9.35
2022-10-19T12:08:53.864Z,8.95
2022-10-19T12:11:43.716Z,8.45
2022-10-19T12:14:16.418Z,8.68
2022-10-19T12:16:49.734Z,8.30
2022-10-19T12:19:29.502Z,7.90
2022-10-19T12:22:02.355Z,8.00
2022-10-19T12:24:30.658Z,8.25
2022-10-19T12:26:58.456Z,7.90
2022-10-19T12:29:39.654Z,7.60
2022-10-19T12:32:07.223Z,8.02
2022-10-19T12:35:11.094Z,8.10
2022-10-19T12:37:49.779Z,7.65
2022-10-19T12:40:34.099Z,6.65
2022-10-19T12:43:09.176Z,7.15
2022-10-19T12:45:41.558Z,7.45
2022-10-19T12:48:08.085Z,7.20
2022-10-19T12:50:49.877Z,6.30
2022-10-19T12:53:38.778Z,6.13
2022-10-19T12:56:07.351Z,6.65
2022-10-19T12:58:59.759Z,6.68
2022-10-19T13:01:33.943Z,6.23
2022-10-19T13:04:20.802Z,6.10
2022-10-19T13:06:57.306Z,5.72
2022-10-19T13:09:32.813Z,5.97
2022-10-19T13:12:17.877Z,5.38
2022-10-19T13:15:00.011Z,5.97
2022-10-19T13:17:43.989Z,5.00
2022-10-19T13:20:13.673Z,5.72
2022-10-19T13:22:49.534Z,5.22
2022-10-19T13:25:30.998Z,5.07
2022-10-19T13:28:01.319Z,5.30
2022-10-19T13:30:38.200Z,4.63
2022-10-19T13:33:28.570Z,4.80
2022-10-19T13:36:02.651Z,5.18
2022-10-19T13:38:39.908Z,5.00
2022-10-19T13:41:09.132Z,4.07
2022-10-19T13:44:12.089Z,4.45
2022-10-19T13:46:41.278Z,4.95
2022-10-19T13:49:13.091Z,5.45
2022-10-19T13:51:45.410Z,4.38
2022-10-19T13:54:14.626Z,4.10
2022-10-19T13:56:59.881Z,4.53
2022-10-19T13:59:36.922Z,4.38
2022-10-19T14:02:40.346Z,4.30
2022-10-19T14:05:24.972Z,4.43
2022-10-19T14:08:03.316Z,4.30
2022-10-19T14:10:32.947Z,5.32
2022-10-19T14:13:01.892Z,5.28
2022-10-19T14:15:34.231Z,5.43
2022-10-19T14:18:03.738Z,5.35
2022-10-19T14:20:38.413Z,4.90
2022-10-19T14:23:19.520Z,5.65
2022-10-19T14:25:54.856Z,5.40
2022-10-19T14:28:23.494Z,5.82
2022-10-19T14:31:06.948Z,5.90
2022-10-19T14:33:44.364Z,4.97
2022-10-19T14:36:18.082Z,5.10
2022-10-19T14:38:45.231Z,5.53
2022-10-19T14:41:22.035Z,5.53
2022-10-19T14:43:48.636Z,5.70
2022-10-19T14:46:16.442Z,5.10
2022-10-19T14:48:45.915Z,5.32
2022-10-19T14:51:30.501Z,5.78
2022-10-19T14:54:23.991Z,5.80
2022-10-19T14:56:55.601Z,6.15
2022-10-19T14:59:30.085Z,6.90
2022-10-19T15:02:02.603Z,6.55
2022-10-19T15:04:34.396Z,6.70
2022-10-19T15:07:05.113Z,5.75
2022-10-19T15:09:47.884Z,5.72
2022-10-19T15:12:20.090Z,5.53
2022-10-19T15:14:47.965Z,6.20
2022-10-19T15:17:59.319Z,5.60
2022-10-19T15:20:49.351Z,6.22
2022-10-19T15:23:40.722Z,6.40
2022-10-19T15:26:19.688Z,5.53
2022-10-19T15:28:47.507Z,5.78
2022-10-19T15:31:18.450Z,6.38
2022-10-19T15:33:55.255Z,7.63
2022-10-19T15:36:23.459Z,6.03
2022-10-19T15:39:17.949Z,7.38
2022-10-19T15:41:52.129Z,7.45
2022-10-19T15:44:34.109Z,6.78
2022-10-19T15:47:15.901Z,7.68
2022-10-19T15:49:42.500Z,6.50
2022-10-19T15:52:23.729Z,7.35
2022-10-19T15:54:51.564Z,7.40
2022-10-19T15:57:38.356Z,8.45
2022-10-19T16:00:13.131Z,6.28
2022-10-19T16:02:39.813Z,7.30
2022-10-19T16:07:40.831Z,8.15
2022-10-19T16:10:13.313Z,8.45
2022-10-19T16:12:39.912Z,10.50
2022-10-19T16:15:07.111Z,17.33
2022-10-19T16:17:33.967Z,12.57
2022-10-19T16:20:00.719Z,10.13
2022-10-19T16:22:27.358Z,10.90
2022-10-19T16:24:53.939Z,9.73
2022-10-19T16:27:20.607Z,9.80
2022-10-19T16:29:47.189Z,10.10
2022-10-19T16:32:13.823Z,8.80
2022-10-19T16:34:41.399Z,9.07
2022-10-19T16:37:08.025Z,7.43
2022-10-19T16:39:35.128Z,8.90
2022-10-19T16:42:01.759Z,9.70
2022-10-19T16:44:28.394Z,10.80
2022-10-19T16:46:57.922Z,8.75
2022-10-19T16:49:24.775Z,10.95
2022-10-19T16:51:54.711Z,8.80
2022-10-19T16:54:24.610Z,10.48
2022-10-19T16:56:51.196Z,8.70
2022-10-19T16:59:18.809Z,7.82
2022-10-19T17:01:47.189Z,11.02
2022-10-19T17:04:17.211Z,9.70
2022-10-19T17:06:44.210Z,12.00
2022-10-19T17:11:57.504Z,8.35
2022-10-19T17:14:24.102Z,9.40
2022-10-19T17:16:50.679Z,8.15
2022-10-19T17:19:17.311Z,9.73
2022-10-19T17:21:43.918Z,9.68
2022-10-19T17:24:21.989Z,23.92
2022-10-19T17:26:50.882Z,11.23
2022-10-19T17:29:18.087Z,13.35
2022-10-19T17:31:44.745Z,11.77
2022-10-19T17:34:12.086Z,12.02
2022-10-19T17:36:44.777Z,12.85
2022-10-19T17:39:18.187Z,12.25
2022-10-19T17:41:49.431Z,15.38
2022-10-19T17:44:17.450Z,13.40
2022-10-19T17:46:44.919Z,10.43
2022-10-19T17:49:12.574Z,13.95
2022-10-19T17:51:39.547Z,18.02
2022-10-19T17:54:12.256Z,12.00
2022-10-19T17:56:40.255Z,9.55
2022-10-19T17:59:08.887Z,11.75
2022-10-19T18:01:36.943Z,10.23
2022-10-19T18:04:04.267Z,20.73
2022-10-19T18:06:33.474Z,21.98
2022-10-19T18:09:01.794Z,29.90
2022-10-19T18:11:31.195Z,10.68
2022-10-19T18:14:00.618Z,9.57
2022-10-19T18:16:29.153Z,10.90
2022-10-19T18:18:57.737Z,12.88
2022-10-19T18:21:31.240Z,10.75
2022-10-19T18:23:59.319Z,10.52
2022-10-19T18:26:29.687Z,11.15
2022-10-19T18:28:57.379Z,12.75
2022-10-19T18:31:34.066Z,12.88
2022-10-19T18:34:03.002Z,11.45
2022-10-19T18:36:30.667Z,11.35
2022-10-19T18:39:00.579Z,10.82
2022-10-19T18:41:28.340Z,11.30
2022-10-19T18:43:57.354Z,10.27
2022-10-19T18:46:25.958Z,12.10
2022-10-19T18:48:53.654Z,10.35
2022-10-19T18:51:22.118Z,10.73
2022-10-19T18:53:48.833Z,11.13
2022-10-19T18:56:18.464Z,10.82
2022-10-19T18:58:45.559Z,11.13
2022-10-19T19:01:24.832Z,12.40
2022-10-19T19:03:53.987Z,12.25
2022-10-19T19:06:26.281Z,12.65
2022-10-19T19:08:57.255Z,11.77
2022-10-19T19:11:26.016Z,12.55
2022-10-19T19:13:57.992Z,11.93
2022-10-19T19:16:25.863Z,12.27
2022-10-19T19:18:52.497Z,11.48
2022-10-19T19:21:21.712Z,11.20
2022-10-19T19:23:49.552Z,13.63
2022-10-19T19:26:17.455Z,13.05
2022-10-19T19:28:46.393Z,12.27
2022-10-19T19:33:45.463Z,10.70
2022-10-19T19:36:13.758Z,12.57
2022-10-19T19:38:40.775Z,11.45
2022-10-19T19:41:09.475Z,11.90
2022-10-19T19:43:37.407Z,11.35
2022-10-19T19:46:09.375Z,10.77
2022-10-19T19:48:37.054Z,10.90
2022-10-19T19:51:03.888Z,12.05
2022-10-19T19:53:30.683Z,10.13
2022-10-19T19:55:57.328Z,11.52
2022-10-19T19:58:23.917Z,10.23
2022-10-19T20:00:50.555Z,11.60
2022-10-19T20:03:17.190Z,10.15
2022-10-19T20:05:43.822Z,9.43
2022-10-19T20:08:11.322Z,10.32
2022-10-19T20:10:39.781Z,10.18
2022-10-19T20:13:06.696Z,10.30
2022-10-19T20:15:33.637Z,10.38
2022-10-19T20:18:00.208Z,9.65
2022-10-19T20:20:26.791Z,10.00
2022-10-19T20:22:53.431Z,10.15
2022-10-19T20:25:19.987Z,11.35
2022-10-19T20:27:46.579Z,10.60
2022-10-19T20:30:13.208Z,9.77
2022-10-19T20:32:39.809Z,10.10
2022-10-19T20:35:07.538Z,11.45
2022-10-19T20:37:34.326Z,11.13
2022-10-19T20:40:03.389Z,10.27
2022-10-19T20:42:34.199Z,11.60
2022-10-19T20:45:01.050Z,10.15
2022-10-19T20:47:27.723Z,11.45
2022-10-19T20:49:54.385Z,10.32
2022-10-19T20:52:21.047Z,12.00
2022-10-19T20:54:48.470Z,11.48
2022-10-19T20:57:15.318Z,11.52
2022-10-19T20:59:43.948Z,10.93
2022-10-19T21:02:11.376Z,10.75
2022-10-19T21:04:38.131Z,11.90
2022-10-19T21:07:05.139Z,11.85
2022-10-19T21:09:32.054Z,11.20
2022-10-19T21:11:58.711Z,11.88
2022-10-19T21:14:29.983Z,11.82
2022-10-19T21:17:00.347Z,11.45
2022-10-19T21:19:28.882Z,11.43
2022-10-19T21:22:03.712Z,12.18
2022-10-19T21:24:36.048Z,11.10
2022-10-19T21:27:05.197Z,10.40
2022-10-19T21:29:31.865Z,11.20
2022-10-19T21:31:58.544Z,11.60
2022-10-19T21:34:29.964Z,10.80
2022-10-19T21:36:57.714Z,11.70
2022-10-19T21:39:24.362Z,10.68
2022-10-19T21:41:51.007Z,11.52
2022-10-19T21:44:18.687Z,10.52
2022-10-19T21:46:47.885Z,10.70
2022-10-19T21:49:15.135Z,10.52
2022-10-19T21:51:47.390Z,10.85
2022-10-19T21:54:19.262Z,10.25
2022-10-19T21:56:47.290Z,10.88
2022-10-19T21:59:15.053Z,11.02
2022-10-19T22:01:42.027Z,10.65
2022-10-19T22:04:16.920Z,9.80
2022-10-19T22:06:44.171Z,11.43
2022-10-19T22:09:14.110Z,11.05
2022-10-19T22:11:40.780Z,10.75
2022-10-19T22:14:07.622Z,9.38
2022-10-19T22:16:36.974Z,10.70
2022-10-19T22:19:05.351Z,10.07
2022-10-19T22:21:33.687Z,9.32
2022-10-19T22:24:06.814Z,11.52
2022-10-19T22:26:47.881Z,9.10
2022-10-19T22:29:15.018Z,10.68
2022-10-19T22:31:41.980Z,9.70
2022-10-19T22:34:14.834Z,10.38
2022-10-19T22:36:42.071Z,10.13
2022-10-19T22:39:09.163Z,9.98
2022-10-19T22:41:35.771Z,9.75
2022-10-19T22:44:02.537Z,10.02
2022-10-19T22:46:29.156Z,9.10
2022-10-19T22:48:55.801Z,9.05
2022-10-19T22:51:22.454Z,9.68
2022-10-19T22:53:49.013Z,9.32
2022-10-19T22:56:15.630Z,9.98
2022-10-19T22:58:42.278Z,9.05
2022-10-19T23:01:11.582Z,10.02
2022-10-19T23:03:40.342Z,9.45
2022-10-19T23:06:08.620Z,8.52
2022-10-19T23:08:35.424Z,8.68
2022-10-19T23:11:02.163Z,9.05
2022-10-19T23:13:28.963Z,8.18
2022-10-19T23:15:55.687Z,8.00
2022-10-19T23:18:22.344Z,8.00
2022-10-19T23:21:03.999Z,8.68
2022-10-19T23:23:32.542Z,9.00
2022-10-19T23:26:03.625Z,8.30
2022-10-19T23:28:31.599Z,9.23
2022-10-19T23:31:04.746Z,8.57
2022-10-19T23:33:31.956Z,8.63
2022-10-19T23:36:07.138Z,7.97
2022-10-19T23:38:34.483Z,7.45
2022-10-19T23:41:01.188Z,6.88
2022-10-19T23:43:28.073Z,7.45
2022-10-19T23:45:54.765Z,7.47
2022-10-19T23:48:21.557Z,7.18
2022-10-19T23:51:00.045Z,6.95
2022-10-19T23:53:27.965Z,7.53
2022-10-19T23:56:02.398Z,6.20
2022-10-19T23:58:29.366Z,5.95
